KSDF

UTC

Louisville Muhammad Ali International Airport

Louisville, Kentucky, United States

TAF Report

KSDF 020520Z 0206/0312 00000KT P6SM SKC FM021600 05007KT P6SM SKC FM030100 03004KT P6SM SKC

Issued

Jun 02 05:20 UTC

Valid From

Jun 02 06:00 UTC

Valid To

Jun 03 12:00 UTC

TAF Sections

  1. Jun 02 06:00 UTC - Jun 02 16:00 UTC

    TAF KSDF 020520Z 0206/0312 00000KT P6SM SKC

    Visibility

    Greater than 6 SM

    Clouds

    • Clear skies
  2. Jun 02 16:00 UTC - Jun 03 01:00 UTC

    FM021600 05007KT P6SM SKC

    Wind

    050° at 7 KTS

    Visibility

    Greater than 6 SM

    Clouds

    • Clear skies
  3. Jun 03 01:00 UTC - Jun 03 12:00 UTC

    FM030100 03004KT P6SM SKC

    Wind

    030° at 4 KTS

    Visibility

    Greater than 6 SM

    Clouds

    • Clear skies